Time;durP1;ratioP1;P1;durP2;ratioP2;P2;SDS_P1;SDS_P2;PMS_P1;PMS_P2;Temp;Humidity;BMP_temperature;BMP_pressure;BME280_temperature;BME280_humidity;BME280_pressure;Samples;Min_cycle;Max_cycle;Signal;HPM_P1;HPM_P2
2023/09/09 00:02:51;;;;;;;7.93;3.47;;;;;;;;;;10404119;28;20022;-47
2023/09/09 00:07:52;;;;;;;4.85;3.85;;;;;;;;;;10405798;28;20021;-49
2023/09/09 00:12:52;;;;;;;5.60;3.72;;;;;;;;;;10414259;28;20091;-49
2023/09/09 00:17:53;;;;;;;4.00;3.60;;;;;;;;;;10403539;28;20033;-47
2023/09/09 00:22:53;;;;;;;7.20;3.90;;;;;;;;;;10412694;28;20033;-47
2023/09/09 00:27:54;;;;;;;4.40;3.63;;;;;;;;;;10402026;28;20026;-59
2023/09/09 00:32:54;;;;;;;5.95;3.58;;;;;;;;;;10410110;28;20026;-47
2023/09/09 00:37:55;;;;;;;5.00;3.53;;;;;;;;;;10408290;28;20451;-48
2023/09/09 00:42:56;;;;;;;4.25;3.72;;;;;;;;;;10410070;28;20079;-47
2023/09/09 00:47:57;;;;;;;8.75;3.58;;;;;;;;;;10395693;28;20026;-48
2023/09/09 00:52:58;;;;;;;5.32;3.78;;;;;;;;;;10411263;28;20036;-48
2023/09/09 00:57:58;;;;;;;7.15;3.58;;;;;;;;;;10406195;28;20103;-47
2023/09/09 01:02:59;;;;;;;8.98;4.10;;;;;;;;;;10410835;28;20083;-47
2023/09/09 01:08:00;;;;;;;5.35;3.42;;;;;;;;;;10399952;28;20033;-49
2023/09/09 01:13:00;;;;;;;4.40;3.60;;;;;;;;;;10410151;28;20473;-47
2023/09/09 01:18:01;;;;;;;7.72;4.10;;;;;;;;;;10401920;28;20033;-48
2023/09/09 01:23:02;;;;;;;4.13;3.42;;;;;;;;;;10404917;28;20029;-47
2023/09/09 01:28:03;;;;;;;5.03;3.42;;;;;;;;;;10407951;28;20021;-48
2023/09/09 01:33:04;;;;;;;6.18;4.10;;;;;;;;;;10397499;28;20059;-47
2023/09/09 01:38:04;;;;;;;4.28;3.75;;;;;;;;;;10408640;28;20033;-48
2023/09/09 01:43:05;;;;;;;4.80;3.47;;;;;;;;;;10407073;28;20060;-48
2023/09/09 01:48:06;;;;;;;3.97;3.60;;;;;;;;;;10409154;28;20022;-47
2023/09/09 01:53:06;;;;;;;4.63;3.70;;;;;;;;;;10406623;28;20037;-46
2023/09/09 01:58:07;;;;;;;4.50;3.75;;;;;;;;;;10408784;28;20056;-47
2023/09/09 02:03:08;;;;;;;6.43;4.00;;;;;;;;;;10406790;28;20029;-47
2023/09/09 02:08:08;;;;;;;9.70;4.13;;;;;;;;;;10402508;28;20030;-47
2023/09/09 02:13:09;;;;;;;5.38;3.47;;;;;;;;;;10407550;28;20184;-48
2023/09/09 02:18:10;;;;;;;7.88;3.63;;;;;;;;;;10409183;28;20056;-47
2023/09/09 02:23:10;;;;;;;6.45;3.90;;;;;;;;;;10406156;28;20025;-47
2023/09/09 02:28:11;;;;;;;5.82;3.80;;;;;;;;;;10407351;28;20070;-56
2023/09/09 02:33:13;;;;;;;4.90;3.70;;;;;;;;;;10406758;28;20048;-47
2023/09/09 02:38:13;;;;;;;3.92;3.50;;;;;;;;;;10398057;28;20046;-47
2023/09/09 02:43:14;;;;;;;4.45;4.00;;;;;;;;;;10404548;28;20045;-47
2023/09/09 02:48:15;;;;;;;5.20;3.85;;;;;;;;;;10406793;28;20022;-49
2023/09/09 02:53:15;;;;;;;5.57;3.40;;;;;;;;;;10403383;28;20036;-47
2023/09/09 02:58:16;;;;;;;4.00;3.65;;;;;;;;;;10405408;28;20032;-47
2023/09/09 03:03:16;;;;;;;5.38;4.03;;;;;;;;;;10399892;28;20053;-46
2023/09/09 03:08:17;;;;;;;4.38;3.45;;;;;;;;;;10406939;28;20021;-47
2023/09/09 03:13:17;;;;;;;5.05;3.75;;;;;;;;;;10395628;28;20037;-49
2023/09/09 03:18:18;;;;;;;8.52;4.05;;;;;;;;;;10406676;28;20488;-50
2023/09/09 03:23:19;;;;;;;7.47;3.95;;;;;;;;;;10402419;28;20489;-49
2023/09/09 03:28:19;;;;;;;4.47;3.47;;;;;;;;;;10406961;28;20083;-50
2023/09/09 03:33:20;;;;;;;4.53;3.88;;;;;;;;;;10401901;28;20049;-52
2023/09/09 03:38:20;;;;;;;4.40;3.13;;;;;;;;;;10406029;28;20030;-48
2023/09/09 03:43:21;;;;;;;8.68;3.60;;;;;;;;;;10398936;28;20052;-47
2023/09/09 03:48:22;;;;;;;5.45;3.75;;;;;;;;;;10406126;28;20515;-48
2023/09/09 03:53:23;;;;;;;5.53;3.75;;;;;;;;;;10393495;28;20049;-47
2023/09/09 03:58:24;;;;;;;4.72;3.83;;;;;;;;;;10405715;28;20026;-49
2023/09/09 04:03:25;;;;;;;5.38;4.20;;;;;;;;;;10403627;28;20034;-47
2023/09/09 04:08:25;;;;;;;7.68;4.35;;;;;;;;;;10408976;28;20026;-47
2023/09/09 04:13:26;;;;;;;4.40;4.00;;;;;;;;;;10409981;28;20056;-47
2023/09/09 04:18:27;;;;;;;7.05;3.45;;;;;;;;;;10408807;28;20062;-47
2023/09/09 04:23:28;;;;;;;6.95;3.72;;;;;;;;;;10412951;28;20057;-50
2023/09/09 04:28:29;;;;;;;6.47;3.65;;;;;;;;;;10410284;28;20026;-56
2023/09/09 04:33:29;;;;;;;5.65;3.50;;;;;;;;;;10405944;28;20383;-47
2023/09/09 04:38:30;;;;;;;4.75;3.95;;;;;;;;;;10412189;28;20428;-47
2023/09/09 04:43:30;;;;;;;9.10;4.15;;;;;;;;;;10407970;28;20393;-48
2023/09/09 04:48:32;;;;;;;3.75;3.30;;;;;;;;;;10410679;28;20425;-48
2023/09/09 04:53:32;;;;;;;5.93;3.28;;;;;;;;;;10411146;28;20033;-46
2023/09/09 04:58:33;;;;;;;7.00;3.42;;;;;;;;;;10410668;28;20465;-47
2023/09/09 05:03:34;;;;;;;5.22;3.63;;;;;;;;;;10408971;28;20520;-47
2023/09/09 05:08:34;;;;;;;4.57;3.92;;;;;;;;;;10400912;28;20391;-46
2023/09/09 05:13:35;;;;;;;8.02;4.15;;;;;;;;;;10410131;28;20453;-46
2023/09/09 05:18:35;;;;;;;4.97;3.60;;;;;;;;;;10406911;28;20469;-46
2023/09/09 05:23:36;;;;;;;6.55;3.80;;;;;;;;;;10409300;28;20473;-46
2023/09/09 05:28:36;;;;;;;9.63;3.92;;;;;;;;;;10407191;28;20026;-58
2023/09/09 05:33:37;;;;;;;3.92;3.38;;;;;;;;;;10402293;28;20044;-48
2023/09/09 05:38:37;;;;;;;4.05;3.65;;;;;;;;;;10409649;28;20018;-47
2023/09/09 05:43:38;;;;;;;6.20;3.78;;;;;;;;;;10405064;28;20497;-47
2023/09/09 05:48:39;;;;;;;6.38;3.80;;;;;;;;;;10417343;28;20500;-46
2023/09/09 05:53:41;;;;;;;4.90;3.83;;;;;;;;;;10402348;28;20053;-48
2023/09/09 05:58:41;;;;;;;5.25;3.70;;;;;;;;;;10403174;28;20029;-47
2023/09/09 06:03:42;;;;;;;8.15;4.00;;;;;;;;;;10400978;28;20064;-47
2023/09/09 06:08:42;;;;;;;3.92;3.42;;;;;;;;;;10402564;28;20131;-48
2023/09/09 06:13:43;;;;;;;7.13;4.80;;;;;;;;;;10394532;28;20038;-47
2023/09/09 06:18:44;;;;;;;6.13;4.05;;;;;;;;;;10403771;28;20030;-48
2023/09/09 06:23:44;;;;;;;4.93;3.83;;;;;;;;;;10405196;28;20079;-48
2023/09/09 06:28:45;;;;;;;6.80;4.22;;;;;;;;;;10405105;28;20376;-58
2023/09/09 06:33:45;;;;;;;5.82;3.65;;;;;;;;;;10394171;28;20504;-48
2023/09/09 06:38:48;;;;;;;4.85;4.20;;;;;;;;;;10390438;28;20086;-48
2023/09/09 06:43:49;;;;;;;11.90;4.18;;;;;;;;;;10403902;28;20074;-49
2023/09/09 06:48:50;;;;;;;10.23;3.60;;;;;;;;;;10405169;28;20025;-51
2023/09/09 06:53:51;;;;;;;7.70;4.25;;;;;;;;;;10406260;28;20380;-50
2023/09/09 06:58:51;;;;;;;7.53;4.15;;;;;;;;;;10407560;28;20029;-55
2023/09/09 07:03:52;;;;;;;6.78;4.18;;;;;;;;;;10403882;28;20049;-53
2023/09/09 07:08:52;;;;;;;9.38;4.00;;;;;;;;;;10406288;28;20026;-50
2023/09/09 07:13:53;;;;;;;5.75;3.97;;;;;;;;;;10403573;28;20036;-53
2023/09/09 07:18:54;;;;;;;7.43;4.07;;;;;;;;;;10407118;28;20029;-51
2023/09/09 07:23:54;;;;;;;5.50;4.47;;;;;;;;;;10406833;28;20029;-48
2023/09/09 07:28:55;;;;;;;6.55;4.10;;;;;;;;;;10403349;28;20044;-46
2023/09/09 07:33:56;;;;;;;10.27;4.20;;;;;;;;;;10394891;28;20473;-48
2023/09/09 07:38:56;;;;;;;10.13;3.75;;;;;;;;;;10393173;28;20036;-57
2023/09/09 07:43:57;;;;;;;6.38;3.55;;;;;;;;;;10387115;28;20042;-48
2023/09/09 07:48:57;;;;;;;5.25;3.88;;;;;;;;;;10412423;28;20354;-49
2023/09/09 07:53:58;;;;;;;10.77;4.30;;;;;;;;;;10414129;28;20456;-49
2023/09/09 07:58:59;;;;;;;8.50;4.13;;;;;;;;;;10412702;28;20043;-47
2023/09/09 08:03:59;;;;;;;6.03;4.05;;;;;;;;;;10413870;28;20393;-48
2023/09/09 08:09:00;;;;;;;3.75;3.35;;;;;;;;;;10407345;28;20385;-58
2023/09/09 08:14:00;;;;;;;6.45;3.88;;;;;;;;;;10408751;28;20392;-58
2023/09/09 08:19:01;;;;;;;8.50;4.50;;;;;;;;;;10409214;28;20392;-58
2023/09/09 08:24:01;;;;;;;9.95;4.18;;;;;;;;;;10412152;28;20025;-59
2023/09/09 08:29:03;;;;;;;14.07;3.90;;;;;;;;;;10411275;28;20025;-50
2023/09/09 08:34:03;;;;;;;8.63;3.75;;;;;;;;;;10411038;28;20029;-49
2023/09/09 08:39:04;;;;;;;9.77;3.78;;;;;;;;;;10411346;28;20030;-47
2023/09/09 08:45:00;;;;;;;7.10;4.07;;;;;;;;;;10412217;28;20059;-47
2023/09/09 08:50:04;;;;;;;8.43;4.05;;;;;;;;;;10411114;28;20026;-47
2023/09/09 08:55:05;;;;;;;11.50;4.45;;;;;;;;;;10409367;28;20516;-47
2023/09/09 09:00:07;;;;;;;11.38;4.15;;;;;;;;;;10406546;28;20021;-46
2023/09/09 09:05:10;;;;;;;11.68;3.60;;;;;;;;;;10409949;28;20073;-47
2023/09/09 09:10:10;;;;;;;11.90;3.97;;;;;;;;;;10407378;28;20048;-46
2023/09/09 09:15:11;;;;;;;8.30;3.42;;;;;;;;;;10400377;28;20492;-47
2023/09/09 09:20:33;;;;;;;11.10;4.30;;;;;;;;;;10405740;28;20243;-46
2023/09/09 09:25:52;;;;;;;11.55;4.15;;;;;;;;;;10412985;28;20525;-47
2023/09/09 09:30:52;;;;;;;4.50;3.63;;;;;;;;;;10410210;28;20021;-46
2023/09/09 09:35:53;;;;;;;4.40;3.60;;;;;;;;;;10400479;28;20037;-47
2023/09/09 09:40:59;;;;;;;7.55;3.83;;;;;;;;;;10396013;28;20083;-48
2023/09/09 09:46:17;;;;;;;6.05;3.78;;;;;;;;;;10407517;28;20074;-46
2023/09/09 09:51:17;;;;;;;;;;;;;;;;;;10410008;28;20103;-47
2023/09/09 09:56:19;;;;;;;7.33;3.63;;;;;;;;;;10409026;28;20016;-48
2023/09/09 10:01:20;;;;;;;19.30;4.93;;;;;;;;;;10408375;28;20056;-47
2023/09/09 10:06:27;;;;;;;12.32;4.15;;;;;;;;;;10415685;28;20037;-47
2023/09/09 10:11:35;;;;;;;14.18;4.43;;;;;;;;;;10405140;28;20029;-47
2023/09/09 10:16:36;;;;;;;;;;;;;;;;;;10394364;28;20056;-48
2023/09/09 10:21:37;;;;;;;6.03;4.20;;;;;;;;;;10408456;28;19923;-47
2023/09/09 10:26:39;;;;;;;4.80;3.70;;;;;;;;;;10407801;28;20500;-46
2023/09/09 10:31:42;;;;;;;11.40;4.50;;;;;;;;;;10405428;28;20025;-46
2023/09/09 10:36:44;;;;;;;20.50;4.53;;;;;;;;;;10407328;28;20398;-47
2023/09/09 10:41:45;;;;;;;11.45;4.15;;;;;;;;;;10401828;28;20427;-46
2023/09/09 10:46:45;;;;;;;7.57;4.05;;;;;;;;;;10403812;28;20048;-47
2023/09/09 10:51:51;;;;;;;15.07;3.83;;;;;;;;;;10406588;28;20036;-45
2023/09/09 10:56:55;;;;;;;5.45;3.58;;;;;;;;;;10406277;28;20112;-45
2023/09/09 11:02:43;;;;;;;9.55;4.13;;;;;;;;;;10406238;28;20067;-46
2023/09/09 11:07:44;;;;;;;7.97;4.15;;;;;;;;;;10351845;28;20045;-46
2023/09/09 11:12:58;;;;;;;11.60;3.83;;;;;;;;;;10358255;28;20057;-46
2023/09/09 11:18:02;;;;;;;9.40;3.63;;;;;;;;;;10357595;28;20441;-46
2023/09/09 11:23:04;;;;;;;8.88;3.80;;;;;;;;;;10361870;28;20271;-46
2023/09/09 11:28:05;;;;;;;4.45;3.50;;;;;;;;;;10351704;28;20078;-46
2023/09/09 11:33:06;;;;;;;8.45;3.65;;;;;;;;;;10324595;28;20133;-46
2023/09/09 11:38:06;;;;;;;6.53;4.10;;;;;;;;;;10350537;28;20477;-46
2023/09/09 11:43:10;;;;;;;4.20;3.65;;;;;;;;;;10400083;28;20489;-46
2023/09/09 11:48:13;;;;;;;4.63;3.78;;;;;;;;;;10405310;28;20353;-46
2023/09/09 11:53:14;;;;;;;7.88;3.97;;;;;;;;;;10402329;28;20034;-47
2023/09/09 11:58:15;;;;;;;5.25;3.53;;;;;;;;;;10379406;28;20038;-48
2023/09/09 12:03:20;;;;;;;4.60;3.78;;;;;;;;;;10395617;28;20037;-49
2023/09/09 12:08:21;;;;;;;13.63;3.75;;;;;;;;;;10389762;28;20025;-46
2023/09/09 12:13:22;;;;;;;5.25;3.72;;;;;;;;;;10387111;28;20473;-47
2023/09/09 12:18:22;;;;;;;11.52;4.28;;;;;;;;;;10398448;28;20147;-46
2023/09/09 12:23:31;;;;;;;4.57;3.40;;;;;;;;;;10394332;28;20040;-46
2023/09/09 12:28:32;;;;;;;6.03;3.95;;;;;;;;;;10395420;28;20037;-47
2023/09/09 12:33:44;;;;;;;5.72;4.00;;;;;;;;;;10405498;28;20075;-47
2023/09/09 12:38:48;;;;;;;7.03;3.83;;;;;;;;;;10399895;28;20029;-46
2023/09/09 12:43:52;;;;;;;9.65;3.92;;;;;;;;;;10404513;28;20152;-47
2023/09/09 12:48:59;;;;;;;14.18;3.65;;;;;;;;;;10401351;28;20033;-48
2023/09/09 12:54:00;;;;;;;4.78;3.97;;;;;;;;;;10410323;28;20112;-48
2023/09/09 12:59:01;;;;;;;9.75;3.50;;;;;;;;;;10410310;28;20758;-48
2023/09/09 13:04:02;;;;;;;5.38;3.70;;;;;;;;;;10406123;28;20025;-51
2023/09/09 13:09:03;;;;;;;4.90;4.03;;;;;;;;;;10400889;28;20036;-46
2023/09/09 13:14:03;;;;;;;5.00;3.63;;;;;;;;;;10407146;28;20120;-47
2023/09/09 13:19:04;;;;;;;8.23;4.82;;;;;;;;;;10398010;28;20034;-47
2023/09/09 13:24:05;;;;;;;4.30;3.25;;;;;;;;;;10408394;28;20033;-48
2023/09/09 13:29:06;;;;;;;8.00;4.00;;;;;;;;;;10403288;28;20021;-55
2023/09/09 13:34:06;;;;;;;9.02;3.85;;;;;;;;;;10395420;28;20550;-47
2023/09/09 13:39:07;;;;;;;5.70;4.07;;;;;;;;;;10400842;28;20021;-46
2023/09/09 13:44:07;;;;;;;5.13;3.50;;;;;;;;;;10397275;28;20048;-47
2023/09/09 13:49:08;;;;;;;7.78;3.88;;;;;;;;;;10405136;28;20048;-50
2023/09/09 13:54:09;;;;;;;7.63;3.40;;;;;;;;;;10407107;28;20099;-47
2023/09/09 13:59:10;;;;;;;5.82;3.38;;;;;;;;;;10407924;28;20018;-47
2023/09/09 14:04:10;;;;;;;8.32;3.78;;;;;;;;;;10405723;28;20071;-47
2023/09/09 14:09:11;;;;;;;7.75;3.28;;;;;;;;;;10406945;28;20350;-48
2023/09/09 14:14:13;;;;;;;4.60;3.38;;;;;;;;;;10406276;28;20049;-46
2023/09/09 14:19:14;;;;;;;4.38;3.45;;;;;;;;;;10403497;28;20029;-46
2023/09/09 14:24:15;;;;;;;4.78;3.50;;;;;;;;;;10403226;28;20040;-49
2023/09/09 14:29:15;;;;;;;8.98;3.60;;;;;;;;;;10402830;28;20033;-47
2023/09/09 14:34:16;;;;;;;4.22;3.58;;;;;;;;;;10401362;28;20397;-49
2023/09/09 14:39:16;;;;;;;4.05;3.53;;;;;;;;;;10406180;28;20379;-58
2023/09/09 14:44:17;;;;;;;4.03;3.30;;;;;;;;;;10400197;28;20037;-56
2023/09/09 14:49:18;;;;;;;5.18;3.47;;;;;;;;;;10403398;28;20392;-58
2023/09/09 14:54:19;;;;;;;8.43;3.58;;;;;;;;;;10400287;28;20033;-58
2023/09/09 14:59:19;;;;;;;5.25;3.53;;;;;;;;;;10392343;28;20087;-57
2023/09/09 15:04:20;;;;;;;5.32;3.53;;;;;;;;;;10404936;28;20558;-55
2023/09/09 15:09:21;;;;;;;4.45;3.90;;;;;;;;;;10405039;28;20030;-58
2023/09/09 15:14:21;;;;;;;13.40;3.80;;;;;;;;;;10400515;28;20037;-57
2023/09/09 15:19:22;;;;;;;13.85;3.72;;;;;;;;;;10404835;28;20037;-58
2023/09/09 15:24:23;;;;;;;5.18;3.85;;;;;;;;;;10396836;28;20021;-57
2023/09/09 15:29:23;;;;;;;5.97;3.83;;;;;;;;;;10399010;28;20608;-46
2023/09/09 15:34:24;;;;;;;9.77;3.55;;;;;;;;;;10400831;28;20033;-46
2023/09/09 15:39:24;;;;;;;6.57;3.42;;;;;;;;;;10401540;28;20033;-46
2023/09/09 15:44:25;;;;;;;8.32;3.75;;;;;;;;;;10386112;28;20050;-46
2023/09/09 15:49:26;;;;;;;5.65;3.83;;;;;;;;;;10398965;28;20516;-46
2023/09/09 15:54:27;;;;;;;7.07;3.80;;;;;;;;;;10396951;28;20119;-46
2023/09/09 15:59:27;;;;;;;4.82;3.45;;;;;;;;;;10399788;28;20441;-46
2023/09/09 16:04:28;;;;;;;7.55;3.75;;;;;;;;;;10409273;28;20465;-52
2023/09/09 16:09:28;;;;;;;5.57;3.47;;;;;;;;;;10413481;28;20087;-46
2023/09/09 16:14:29;;;;;;;6.15;3.80;;;;;;;;;;10412654;28;20041;-49
2023/09/09 16:19:29;;;;;;;6.43;3.25;;;;;;;;;;10412662;28;20026;-47
2023/09/09 16:24:30;;;;;;;4.38;3.65;;;;;;;;;;10412251;28;20029;-46
2023/09/09 16:29:31;;;;;;;4.93;3.47;;;;;;;;;;10408760;28;20026;-60
2023/09/09 16:34:32;;;;;;;3.78;3.42;;;;;;;;;;10411640;28;20048;-57
2023/09/09 16:39:32;;;;;;;3.60;3.10;;;;;;;;;;10410666;28;20041;-60
2023/09/09 16:44:33;;;;;;;3.17;2.90;;;;;;;;;;10407412;28;20057;-59
2023/09/09 16:49:33;;;;;;;6.90;3.45;;;;;;;;;;10408675;28;20040;-58
2023/09/09 16:54:35;;;;;;;4.00;3.45;;;;;;;;;;10408475;28;20042;-59
2023/09/09 16:59:40;;;;;;;6.93;3.40;;;;;;;;;;10401382;28;20029;-57
2023/09/09 17:04:40;;;;;;;5.15;3.08;;;;;;;;;;10407249;28;20065;-46
2023/09/09 17:09:41;;;;;;;4.80;3.35;;;;;;;;;;10407596;28;20476;-46
2023/09/09 17:14:42;;;;;;;3.10;2.78;;;;;;;;;;10409306;28;20473;-45
2023/09/09 17:19:42;;;;;;;4.15;3.22;;;;;;;;;;10421917;28;20029;-46
2023/09/09 17:24:43;;;;;;;5.28;3.08;;;;;;;;;;10409158;28;20551;-45
2023/09/09 17:29:43;;;;;;;4.68;3.33;;;;;;;;;;10395664;28;20037;-47
2023/09/09 17:34:44;;;;;;;4.95;3.35;;;;;;;;;;10404918;28;20037;-45
2023/09/09 17:39:45;;;;;;;3.90;3.50;;;;;;;;;;10389740;28;20477;-46
2023/09/09 17:44:45;;;;;;;6.28;3.40;;;;;;;;;;10400627;28;20046;-45
2023/09/09 17:49:46;;;;;;;5.25;3.40;;;;;;;;;;10401660;28;20454;-45
2023/09/09 17:54:46;;;;;;;4.97;3.53;;;;;;;;;;10395826;28;20026;-45
2023/09/09 17:59:47;;;;;;;5.32;2.83;;;;;;;;;;10383979;28;20022;-45
2023/09/09 18:04:48;;;;;;;9.55;3.15;;;;;;;;;;10400109;28;20040;-45
2023/09/09 18:09:48;;;;;;;8.77;3.70;;;;;;;;;;10407936;28;20052;-45
2023/09/09 18:14:49;;;;;;;11.10;4.00;;;;;;;;;;10401527;28;20468;-46
2023/09/09 18:19:50;;;;;;;6.50;3.83;;;;;;;;;;10397625;28;20350;-52
2023/09/09 18:24:51;;;;;;;10.30;4.35;;;;;;;;;;10401286;28;20373;-45
2023/09/09 18:29:51;;;;;;;8.18;4.15;;;;;;;;;;10406762;28;20032;-45
2023/09/09 18:34:52;;;;;;;12.70;4.63;;;;;;;;;;10405971;28;20028;-46
2023/09/09 18:39:53;;;;;;;7.85;4.55;;;;;;;;;;10407274;28;20440;-45
2023/09/09 18:44:53;;;;;;;12.93;4.35;;;;;;;;;;10406428;28;20061;-49
2023/09/09 18:49:54;;;;;;;8.80;5.05;;;;;;;;;;10402591;28;20160;-46
2023/09/09 18:54:54;;;;;;;10.85;5.82;;;;;;;;;;10400543;28;20037;-46
2023/09/09 18:59:55;;;;;;;8.90;5.68;;;;;;;;;;10397971;28;20036;-51
2023/09/09 19:04:56;;;;;;;9.32;5.30;;;;;;;;;;10391799;28;20033;-45
2023/09/09 19:09:56;;;;;;;6.53;4.60;;;;;;;;;;10394856;28;20040;-48
2023/09/09 19:14:58;;;;;;;9.77;4.80;;;;;;;;;;10400649;28;20061;-45
2023/09/09 19:20:01;;;;;;;8.50;4.38;;;;;;;;;;10398353;28;20377;-49
2023/09/09 19:25:02;;;;;;;11.15;4.95;;;;;;;;;;10396474;28;20067;-44
2023/09/09 19:30:04;;;;;;;7.00;4.35;;;;;;;;;;10403667;28;20538;-44
2023/09/09 19:35:05;;;;;;;8.23;4.80;;;;;;;;;;10401238;28;20466;-44
2023/09/09 19:40:07;;;;;;;9.32;5.50;;;;;;;;;;10403853;28;20025;-45
2023/09/09 19:45:13;;;;;;;10.77;6.00;;;;;;;;;;10407293;28;20431;-45
2023/09/09 19:50:13;;;;;;;9.77;5.82;;;;;;;;;;10405581;28;20029;-44
2023/09/09 19:55:14;;;;;;;13.05;5.93;;;;;;;;;;10409925;28;20033;-45
2023/09/09 20:00:16;;;;;;;10.02;6.20;;;;;;;;;;10413034;28;20074;-45
2023/09/09 20:05:17;;;;;;;15.90;6.43;;;;;;;;;;10410937;28;20500;-45
2023/09/09 20:10:17;;;;;;;13.40;7.32;;;;;;;;;;10410853;28;20025;-44
2023/09/09 20:15:18;;;;;;;9.57;6.55;;;;;;;;;;10413055;28;20018;-45
2023/09/09 20:20:18;;;;;;;11.20;5.78;;;;;;;;;;10410570;28;20458;-44
2023/09/09 20:25:19;;;;;;;9.93;6.10;;;;;;;;;;10413668;28;20488;-45
2023/09/09 20:30:21;;;;;;;8.88;6.00;;;;;;;;;;10402470;28;20504;-44
2023/09/09 20:35:21;;;;;;;11.45;6.57;;;;;;;;;;10409538;28;20040;-45
2023/09/09 20:40:24;;;;;;;12.52;5.95;;;;;;;;;;10412234;28;20032;-44
2023/09/09 20:45:26;;;;;;;10.50;6.20;;;;;;;;;;10410268;28;20382;-44
2023/09/09 20:50:28;;;;;;;9.30;6.35;;;;;;;;;;10409291;28;20135;-45
2023/09/09 20:55:32;;;;;;;10.05;6.35;;;;;;;;;;10408802;28;20162;-44
2023/09/09 21:00:33;;;;;;;8.98;6.50;;;;;;;;;;10408558;28;20048;-44
2023/09/09 21:05:33;;;;;;;6.43;5.55;;;;;;;;;;10404439;28;20025;-44
2023/09/09 21:10:34;;;;;;;16.23;6.47;;;;;;;;;;10408310;28;20385;-44
2023/09/09 21:15:35;;;;;;;7.50;5.72;;;;;;;;;;10409421;28;20370;-45
2023/09/09 21:20:35;;;;;;;9.25;5.70;;;;;;;;;;10410093;28;20108;-44
2023/09/09 21:25:36;;;;;;;10.20;6.25;;;;;;;;;;10407779;28;20048;-44
2023/09/09 21:30:39;;;;;;;15.38;5.93;;;;;;;;;;10392632;28;20037;-47
2023/09/09 21:35:40;;;;;;;9.85;5.38;;;;;;;;;;10409895;28;20032;-50
2023/09/09 21:40:40;;;;;;;10.77;5.70;;;;;;;;;;10405227;28;20034;-47
2023/09/09 21:45:41;;;;;;;8.27;6.03;;;;;;;;;;10403530;28;20107;-48
2023/09/09 21:50:41;;;;;;;13.20;5.80;;;;;;;;;;10398979;28;20026;-47
2023/09/09 21:55:42;;;;;;;13.07;5.47;;;;;;;;;;10399778;28;20021;-48
2023/09/09 22:00:43;;;;;;;9.93;6.28;;;;;;;;;;10402721;28;20026;-48
2023/09/09 22:05:43;;;;;;;13.10;6.60;;;;;;;;;;10395814;28;20029;-48
2023/09/09 22:10:44;;;;;;;10.40;5.75;;;;;;;;;;10394549;28;20045;-48
2023/09/09 22:15:46;;;;;;;14.98;5.65;;;;;;;;;;10401028;28;20036;-48
2023/09/09 22:20:47;;;;;;;11.52;6.00;;;;;;;;;;10398346;28;20040;-47
2023/09/09 22:25:50;;;;;;;28.88;6.05;;;;;;;;;;10400416;28;20379;-47
2023/09/09 22:30:50;;;;;;;12.73;5.38;;;;;;;;;;10395221;28;20022;-47
2023/09/09 22:35:51;;;;;;;10.55;5.97;;;;;;;;;;10400092;28;20041;-47
2023/09/09 22:40:52;;;;;;;9.50;5.70;;;;;;;;;;10386105;28;20040;-47
2023/09/09 22:45:52;;;;;;;9.85;5.60;;;;;;;;;;10397996;28;20471;-47
2023/09/09 22:50:53;;;;;;;11.13;4.97;;;;;;;;;;10404340;28;20033;-48
2023/09/09 22:55:53;;;;;;;8.88;5.80;;;;;;;;;;10397377;28;20053;-47
2023/09/09 23:00:57;;;;;;;8.95;5.20;;;;;;;;;;10402388;28;20494;-47
2023/09/09 23:06:03;;;;;;;7.95;5.50;;;;;;;;;;10399050;28;20033;-47
2023/09/09 23:11:10;;;;;;;8.18;5.30;;;;;;;;;;10403151;28;20029;-47
2023/09/09 23:16:12;;;;;;;9.90;5.70;;;;;;;;;;10394351;28;20026;-47
2023/09/09 23:21:12;;;;;;;7.85;4.80;;;;;;;;;;10398964;28;20037;-47
2023/09/09 23:26:13;;;;;;;13.18;5.28;;;;;;;;;;10404357;28;20052;-48
2023/09/09 23:31:13;;;;;;;10.43;5.28;;;;;;;;;;10395177;28;20029;-48
2023/09/09 23:36:14;;;;;;;6.10;5.28;;;;;;;;;;10400774;28;20095;-49
2023/09/09 23:41:15;;;;;;;9.38;5.80;;;;;;;;;;10397793;28;20025;-48
2023/09/09 23:46:15;;;;;;;6.70;5.57;;;;;;;;;;10397079;28;20037;-49
2023/09/09 23:51:16;;;;;;;9.50;5.32;;;;;;;;;;10395001;28;20048;-50
2023/09/09 23:56:17;;;;;;;6.03;4.82;;;;;;;;;;10403885;28;20179;-48
